sensor_id;sensor_type;location;lat;lon;timestamp;P1;durP1;ratioP1;P2;durP2;ratioP2
70342;SDS011;57767;42.068;24.752;2022-09-03T00:00:56;12.45;;;9.65;;
70342;SDS011;57767;42.068;24.752;2022-09-03T00:02:11;12.00;;;9.70;;
70342;SDS011;57767;42.068;24.752;2022-09-03T00:03:17;12.93;;;9.80;;
70342;SDS011;57767;42.068;24.752;2022-09-03T00:04:27;10.65;;;9.10;;
70342;SDS011;57767;42.068;24.752;2022-09-03T00:05:44;10.32;;;8.82;;
70342;SDS011;57767;42.068;24.752;2022-09-03T00:06:54;10.98;;;9.60;;
70342;SDS011;57767;42.068;24.752;2022-09-03T00:09:18;11.73;;;9.02;;
70342;SDS011;57767;42.068;24.752;2022-09-03T00:11:00;10.05;;;9.05;;
70342;SDS011;57767;42.068;24.752;2022-09-03T00:12:25;11.07;;;8.93;;
70342;SDS011;57767;42.068;24.752;2022-09-03T00:14:04;11.68;;;10.00;;
70342;SDS011;57767;42.068;24.752;2022-09-03T00:15:19;11.02;;;8.80;;
70342;SDS011;57767;42.068;24.752;2022-09-03T00:16:25;10.77;;;9.68;;
70342;SDS011;57767;42.068;24.752;2022-09-03T00:17:34;11.32;;;10.23;;
70342;SDS011;57767;42.068;24.752;2022-09-03T00:18:54;10.98;;;9.80;;
70342;SDS011;57767;42.068;24.752;2022-09-03T00:20:00;11.75;;;9.38;;
70342;SDS011;57767;42.068;24.752;2022-09-03T00:21:08;13.38;;;9.30;;
70342;SDS011;57767;42.068;24.752;2022-09-03T00:22:15;11.75;;;9.77;;
70342;SDS011;57767;42.068;24.752;2022-09-03T00:23:22;11.00;;;9.38;;
70342;SDS011;57767;42.068;24.752;2022-09-03T00:24:28;11.98;;;9.82;;
70342;SDS011;57767;42.068;24.752;2022-09-03T00:26:18;11.85;;;9.63;;
70342;SDS011;57767;42.068;24.752;2022-09-03T00:27:02;10.93;;;9.82;;
70342;SDS011;57767;42.068;24.752;2022-09-03T00:28:12;10.95;;;9.35;;
70342;SDS011;57767;42.068;24.752;2022-09-03T00:29:20;11.23;;;9.25;;
70342;SDS011;57767;42.068;24.752;2022-09-03T00:30:26;11.90;;;10.13;;
70342;SDS011;57767;42.068;24.752;2022-09-03T00:31:33;11.00;;;10.00;;
70342;SDS011;57767;42.068;24.752;2022-09-03T00:32:41;11.02;;;9.85;;
70342;SDS011;57767;42.068;24.752;2022-09-03T00:33:57;13.50;;;10.10;;
70342;SDS011;57767;42.068;24.752;2022-09-03T00:35:03;11.50;;;10.15;;
70342;SDS011;57767;42.068;24.752;2022-09-03T00:36:12;11.68;;;9.82;;
70342;SDS011;57767;42.068;24.752;2022-09-03T00:37:23;10.50;;;9.40;;
70342;SDS011;57767;42.068;24.752;2022-09-03T00:38:29;10.27;;;9.23;;
70342;SDS011;57767;42.068;24.752;2022-09-03T00:39:31;10.32;;;9.25;;
70342;SDS011;57767;42.068;24.752;2022-09-03T00:43:25;11.23;;;9.73;;
70342;SDS011;57767;42.068;24.752;2022-09-03T00:47:45;9.90;;;8.90;;
70342;SDS011;57767;42.068;24.752;2022-09-03T00:50:13;13.13;;;9.40;;
70342;SDS011;57767;42.068;24.752;2022-09-03T00:52:59;13.90;;;10.10;;
70342;SDS011;57767;42.068;24.752;2022-09-03T00:55:26;11.65;;;9.57;;
70342;SDS011;57767;42.068;24.752;2022-09-03T01:00:57;16.63;;;13.00;;
70342;SDS011;57767;42.068;24.752;2022-09-03T01:02:06;17.08;;;13.35;;
70342;SDS011;57767;42.068;24.752;2022-09-03T01:03:39;15.43;;;13.55;;
70342;SDS011;57767;42.068;24.752;2022-09-03T01:05:10;17.40;;;14.73;;
70342;SDS011;57767;42.068;24.752;2022-09-03T01:06:23;19.73;;;13.45;;
70342;SDS011;57767;42.068;24.752;2022-09-03T01:12:18;11.98;;;8.80;;
70342;SDS011;57767;42.068;24.752;2022-09-03T01:15:56;13.48;;;9.20;;
70342;SDS011;57767;42.068;24.752;2022-09-03T01:24:26;11.30;;;10.10;;
70342;SDS011;57767;42.068;24.752;2022-09-03T01:28:38;12.75;;;9.18;;
70342;SDS011;57767;42.068;24.752;2022-09-03T01:29:55;11.50;;;8.73;;
70342;SDS011;57767;42.068;24.752;2022-09-03T01:37:04;8.73;;;7.82;;
70342;SDS011;57767;42.068;24.752;2022-09-03T01:37:52;9.65;;;7.70;;
70342;SDS011;57767;42.068;24.752;2022-09-03T01:40:26;12.55;;;8.23;;
70342;SDS011;57767;42.068;24.752;2022-09-03T01:41:24;11.35;;;8.85;;
70342;SDS011;57767;42.068;24.752;2022-09-03T01:46:59;12.30;;;11.05;;
70342;SDS011;57767;42.068;24.752;2022-09-03T01:49:43;11.90;;;10.13;;
70342;SDS011;57767;42.068;24.752;2022-09-03T01:51:09;11.45;;;10.20;;
70342;SDS011;57767;42.068;24.752;2022-09-03T01:52:20;10.77;;;9.68;;
70342;SDS011;57767;42.068;24.752;2022-09-03T01:55:31;11.68;;;9.68;;
70342;SDS011;57767;42.068;24.752;2022-09-03T01:58:05;11.70;;;9.32;;
70342;SDS011;57767;42.068;24.752;2022-09-03T02:00:33;10.18;;;9.20;;
70342;SDS011;57767;42.068;24.752;2022-09-03T02:01:46;9.77;;;8.77;;
70342;SDS011;57767;42.068;24.752;2022-09-03T02:02:54;9.75;;;8.43;;
70342;SDS011;57767;42.068;24.752;2022-09-03T02:03:56;9.52;;;8.07;;
70342;SDS011;57767;42.068;24.752;2022-09-03T02:06:08;9.43;;;8.40;;
70342;SDS011;57767;42.068;24.752;2022-09-03T02:07:12;10.27;;;8.07;;
70342;SDS011;57767;42.068;24.752;2022-09-03T02:08:14;9.73;;;8.23;;
70342;SDS011;57767;42.068;24.752;2022-09-03T02:09:16;9.05;;;7.28;;
70342;SDS011;57767;42.068;24.752;2022-09-03T02:10:20;9.57;;;7.40;;
70342;SDS011;57767;42.068;24.752;2022-09-03T02:11:30;10.43;;;6.60;;
70342;SDS011;57767;42.068;24.752;2022-09-03T02:12:32;9.50;;;6.80;;
70342;SDS011;57767;42.068;24.752;2022-09-03T02:13:41;8.52;;;6.80;;
70342;SDS011;57767;42.068;24.752;2022-09-03T02:15:51;7.55;;;6.35;;
70342;SDS011;57767;42.068;24.752;2022-09-03T02:16:57;7.82;;;7.13;;
70342;SDS011;57767;42.068;24.752;2022-09-03T02:18:01;9.15;;;6.95;;
70342;SDS011;57767;42.068;24.752;2022-09-03T02:19:08;7.93;;;7.13;;
70342;SDS011;57767;42.068;24.752;2022-09-03T02:20:15;9.40;;;6.90;;
70342;SDS011;57767;42.068;24.752;2022-09-03T02:21:21;8.25;;;7.38;;
70342;SDS011;57767;42.068;24.752;2022-09-03T02:22:25;9.20;;;7.30;;
70342;SDS011;57767;42.068;24.752;2022-09-03T02:23:27;9.90;;;7.63;;
70342;SDS011;57767;42.068;24.752;2022-09-03T02:24:29;10.77;;;7.45;;
70342;SDS011;57767;42.068;24.752;2022-09-03T02:25:38;8.95;;;7.63;;
70342;SDS011;57767;42.068;24.752;2022-09-03T02:26:42;8.50;;;7.05;;
70342;SDS011;57767;42.068;24.752;2022-09-03T02:27:44;10.63;;;8.07;;
70342;SDS011;57767;42.068;24.752;2022-09-03T02:28:48;9.77;;;7.88;;
70342;SDS011;57767;42.068;24.752;2022-09-03T02:29:52;9.52;;;7.72;;
70342;SDS011;57767;42.068;24.752;2022-09-03T02:30:54;8.93;;;8.00;;
70342;SDS011;57767;42.068;24.752;2022-09-03T02:31:57;10.55;;;7.82;;
70342;SDS011;57767;42.068;24.752;2022-09-03T02:32:59;8.95;;;8.02;;
70342;SDS011;57767;42.068;24.752;2022-09-03T02:34:01;10.85;;;7.93;;
70342;SDS011;57767;42.068;24.752;2022-09-03T02:35:03;11.10;;;8.77;;
70342;SDS011;57767;42.068;24.752;2022-09-03T02:36:07;11.32;;;9.90;;
70342;SDS011;57767;42.068;24.752;2022-09-03T02:37:12;13.68;;;11.65;;
70342;SDS011;57767;42.068;24.752;2022-09-03T02:38:17;12.82;;;11.63;;
70342;SDS011;57767;42.068;24.752;2022-09-03T02:39:21;13.38;;;10.35;;
70342;SDS011;57767;42.068;24.752;2022-09-03T02:40:22;14.00;;;12.40;;
70342;SDS011;57767;42.068;24.752;2022-09-03T02:41:24;24.05;;;21.63;;
70342;SDS011;57767;42.068;24.752;2022-09-03T02:42:27;30.40;;;27.30;;
70342;SDS011;57767;42.068;24.752;2022-09-03T02:44:52;14.20;;;12.63;;
70342;SDS011;57767;42.068;24.752;2022-09-03T02:45:59;14.73;;;7.97;;
70342;SDS011;57767;42.068;24.752;2022-09-03T02:47:04;9.70;;;8.18;;
70342;SDS011;57767;42.068;24.752;2022-09-03T02:48:08;9.90;;;7.85;;
70342;SDS011;57767;42.068;24.752;2022-09-03T02:49:11;8.75;;;7.88;;
70342;SDS011;57767;42.068;24.752;2022-09-03T02:50:13;10.00;;;7.75;;
70342;SDS011;57767;42.068;24.752;2022-09-03T02:51:15;11.27;;;7.60;;
70342;SDS011;57767;42.068;24.752;2022-09-03T02:52:17;11.02;;;7.95;;
70342;SDS011;57767;42.068;24.752;2022-09-03T02:53:19;21.02;;;18.77;;
70342;SDS011;57767;42.068;24.752;2022-09-03T02:54:21;27.52;;;23.80;;
70342;SDS011;57767;42.068;24.752;2022-09-03T02:55:22;16.40;;;14.65;;
70342;SDS011;57767;42.068;24.752;2022-09-03T02:56:24;14.90;;;10.80;;
70342;SDS011;57767;42.068;24.752;2022-09-03T02:57:28;11.20;;;9.43;;
70342;SDS011;57767;42.068;24.752;2022-09-03T02:58:30;11.48;;;8.35;;
70342;SDS011;57767;42.068;24.752;2022-09-03T02:59:31;9.40;;;7.95;;
70342;SDS011;57767;42.068;24.752;2022-09-03T03:00:34;8.63;;;7.80;;
70342;SDS011;57767;42.068;24.752;2022-09-03T03:01:36;10.85;;;8.32;;
70342;SDS011;57767;42.068;24.752;2022-09-03T03:02:42;9.52;;;8.20;;
70342;SDS011;57767;42.068;24.752;2022-09-03T03:03:43;9.13;;;8.23;;
70342;SDS011;57767;42.068;24.752;2022-09-03T03:04:45;11.63;;;8.15;;
70342;SDS011;57767;42.068;24.752;2022-09-03T03:05:48;10.40;;;7.68;;
70342;SDS011;57767;42.068;24.752;2022-09-03T03:06:52;11.80;;;7.68;;
70342;SDS011;57767;42.068;24.752;2022-09-03T03:07:54;9.80;;;8.18;;
70342;SDS011;57767;42.068;24.752;2022-09-03T03:08:58;8.10;;;7.30;;
70342;SDS011;57767;42.068;24.752;2022-09-03T03:10:02;12.82;;;8.35;;
70342;SDS011;57767;42.068;24.752;2022-09-03T03:11:04;9.40;;;8.23;;
70342;SDS011;57767;42.068;24.752;2022-09-03T03:12:06;10.65;;;9.30;;
70342;SDS011;57767;42.068;24.752;2022-09-03T03:13:09;10.45;;;8.25;;
70342;SDS011;57767;42.068;24.752;2022-09-03T03:14:11;12.07;;;8.88;;
70342;SDS011;57767;42.068;24.752;2022-09-03T03:15:13;11.55;;;8.52;;
70342;SDS011;57767;42.068;24.752;2022-09-03T03:16:16;9.40;;;8.50;;
70342;SDS011;57767;42.068;24.752;2022-09-03T03:17:18;11.95;;;8.50;;
70342;SDS011;57767;42.068;24.752;2022-09-03T03:18:20;10.35;;;8.10;;
70342;SDS011;57767;42.068;24.752;2022-09-03T03:19:22;13.43;;;8.77;;
70342;SDS011;57767;42.068;24.752;2022-09-03T03:20:24;10.25;;;8.07;;
70342;SDS011;57767;42.068;24.752;2022-09-03T03:21:26;9.45;;;8.30;;
70342;SDS011;57767;42.068;24.752;2022-09-03T03:22:27;10.48;;;8.85;;
70342;SDS011;57767;42.068;24.752;2022-09-03T03:23:30;10.20;;;8.45;;
70342;SDS011;57767;42.068;24.752;2022-09-03T03:24:33;10.07;;;8.35;;
70342;SDS011;57767;42.068;24.752;2022-09-03T03:25:35;10.88;;;9.00;;
70342;SDS011;57767;42.068;24.752;2022-09-03T03:26:38;10.93;;;9.82;;
70342;SDS011;57767;42.068;24.752;2022-09-03T03:27:40;11.77;;;8.95;;
70342;SDS011;57767;42.068;24.752;2022-09-03T03:28:42;12.60;;;8.70;;
70342;SDS011;57767;42.068;24.752;2022-09-03T03:29:44;12.32;;;8.88;;
70342;SDS011;57767;42.068;24.752;2022-09-03T03:30:46;10.90;;;8.50;;
70342;SDS011;57767;42.068;24.752;2022-09-03T03:31:49;11.15;;;9.05;;
70342;SDS011;57767;42.068;24.752;2022-09-03T03:32:52;9.05;;;7.82;;
70342;SDS011;57767;42.068;24.752;2022-09-03T03:33:56;11.07;;;8.77;;
70342;SDS011;57767;42.068;24.752;2022-09-03T03:34:59;10.52;;;8.63;;
70342;SDS011;57767;42.068;24.752;2022-09-03T03:36:08;11.52;;;8.45;;
70342;SDS011;57767;42.068;24.752;2022-09-03T03:37:10;10.35;;;8.32;;
70342;SDS011;57767;42.068;24.752;2022-09-03T03:38:12;11.18;;;9.52;;
70342;SDS011;57767;42.068;24.752;2022-09-03T03:39:14;13.45;;;9.07;;
70342;SDS011;57767;42.068;24.752;2022-09-03T03:40:15;9.77;;;8.63;;
70342;SDS011;57767;42.068;24.752;2022-09-03T03:41:19;9.40;;;8.13;;
70342;SDS011;57767;42.068;24.752;2022-09-03T03:42:22;10.07;;;7.90;;
70342;SDS011;57767;42.068;24.752;2022-09-03T03:43:24;10.27;;;8.52;;
70342;SDS011;57767;42.068;24.752;2022-09-03T03:44:26;13.30;;;10.73;;
70342;SDS011;57767;42.068;24.752;2022-09-03T03:45:27;14.88;;;13.40;;
70342;SDS011;57767;42.068;24.752;2022-09-03T03:46:36;13.75;;;12.35;;
70342;SDS011;57767;42.068;24.752;2022-09-03T03:47:39;16.48;;;12.35;;
70342;SDS011;57767;42.068;24.752;2022-09-03T03:48:41;19.17;;;14.70;;
70342;SDS011;57767;42.068;24.752;2022-09-03T03:49:43;18.80;;;14.88;;
70342;SDS011;57767;42.068;24.752;2022-09-03T03:50:45;17.75;;;13.02;;
70342;SDS011;57767;42.068;24.752;2022-09-03T03:51:47;18.80;;;14.13;;
70342;SDS011;57767;42.068;24.752;2022-09-03T03:52:49;16.02;;;11.93;;
70342;SDS011;57767;42.068;24.752;2022-09-03T03:53:54;13.40;;;11.27;;
70342;SDS011;57767;42.068;24.752;2022-09-03T03:55:00;12.95;;;11.48;;
70342;SDS011;57767;42.068;24.752;2022-09-03T03:56:03;13.88;;;10.80;;
70342;SDS011;57767;42.068;24.752;2022-09-03T03:57:10;13.35;;;11.68;;
70342;SDS011;57767;42.068;24.752;2022-09-03T03:58:11;14.68;;;11.23;;
70342;SDS011;57767;42.068;24.752;2022-09-03T03:59:13;13.00;;;10.90;;
70342;SDS011;57767;42.068;24.752;2022-09-03T04:00:15;11.43;;;10.15;;
70342;SDS011;57767;42.068;24.752;2022-09-03T04:01:18;11.10;;;9.90;;
70342;SDS011;57767;42.068;24.752;2022-09-03T04:02:21;11.93;;;8.85;;
70342;SDS011;57767;42.068;24.752;2022-09-03T04:03:23;9.88;;;8.88;;
70342;SDS011;57767;42.068;24.752;2022-09-03T04:04:25;10.10;;;8.52;;
70342;SDS011;57767;42.068;24.752;2022-09-03T04:05:27;12.57;;;8.88;;
70342;SDS011;57767;42.068;24.752;2022-09-03T04:06:34;11.50;;;8.88;;
70342;SDS011;57767;42.068;24.752;2022-09-03T04:07:35;12.18;;;8.98;;
70342;SDS011;57767;42.068;24.752;2022-09-03T04:08:38;10.32;;;8.48;;
70342;SDS011;57767;42.068;24.752;2022-09-03T04:09:41;10.85;;;8.77;;
70342;SDS011;57767;42.068;24.752;2022-09-03T04:10:43;10.05;;;9.05;;
70342;SDS011;57767;42.068;24.752;2022-09-03T04:11:44;11.15;;;9.50;;
70342;SDS011;57767;42.068;24.752;2022-09-03T04:12:46;12.00;;;9.00;;
70342;SDS011;57767;42.068;24.752;2022-09-03T04:13:48;13.07;;;8.70;;
70342;SDS011;57767;42.068;24.752;2022-09-03T04:14:51;9.48;;;8.48;;
70342;SDS011;57767;42.068;24.752;2022-09-03T04:15:58;12.52;;;9.70;;
70342;SDS011;57767;42.068;24.752;2022-09-03T04:17:01;13.95;;;10.82;;
70342;SDS011;57767;42.068;24.752;2022-09-03T04:18:05;10.90;;;9.80;;
70342;SDS011;57767;42.068;24.752;2022-09-03T04:19:08;13.88;;;10.20;;
70342;SDS011;57767;42.068;24.752;2022-09-03T04:20:09;11.82;;;9.98;;
70342;SDS011;57767;42.068;24.752;2022-09-03T04:21:12;13.15;;;11.75;;
70342;SDS011;57767;42.068;24.752;2022-09-03T04:22:19;13.27;;;11.85;;
70342;SDS011;57767;42.068;24.752;2022-09-03T04:23:21;12.05;;;9.65;;
70342;SDS011;57767;42.068;24.752;2022-09-03T04:24:23;13.35;;;10.57;;
70342;SDS011;57767;42.068;24.752;2022-09-03T04:25:25;15.13;;;12.00;;
70342;SDS011;57767;42.068;24.752;2022-09-03T04:26:28;13.75;;;9.43;;
70342;SDS011;57767;42.068;24.752;2022-09-03T04:27:34;11.88;;;8.45;;
70342;SDS011;57767;42.068;24.752;2022-09-03T04:28:35;11.30;;;7.72;;
70342;SDS011;57767;42.068;24.752;2022-09-03T04:29:37;11.85;;;7.38;;
70342;SDS011;57767;42.068;24.752;2022-09-03T04:30:39;10.63;;;7.68;;
70342;SDS011;57767;42.068;24.752;2022-09-03T04:31:41;12.73;;;8.98;;
70342;SDS011;57767;42.068;24.752;2022-09-03T04:33:05;16.83;;;8.70;;
70342;SDS011;57767;42.068;24.752;2022-09-03T04:34:16;17.70;;;11.35;;
70342;SDS011;57767;42.068;24.752;2022-09-03T04:35:20;17.92;;;11.93;;
70342;SDS011;57767;42.068;24.752;2022-09-03T04:36:24;13.15;;;11.15;;
70342;SDS011;57767;42.068;24.752;2022-09-03T04:37:27;13.10;;;10.70;;
70342;SDS011;57767;42.068;24.752;2022-09-03T04:38:29;14.63;;;11.48;;
70342;SDS011;57767;42.068;24.752;2022-09-03T04:39:32;12.30;;;10.63;;
70342;SDS011;57767;42.068;24.752;2022-09-03T04:40:33;10.60;;;9.38;;
70342;SDS011;57767;42.068;24.752;2022-09-03T04:41:35;9.77;;;7.85;;
70342;SDS011;57767;42.068;24.752;2022-09-03T04:42:38;10.63;;;9.13;;
70342;SDS011;57767;42.068;24.752;2022-09-03T04:43:40;12.43;;;8.20;;
70342;SDS011;57767;42.068;24.752;2022-09-03T04:44:43;12.20;;;8.18;;
70342;SDS011;57767;42.068;24.752;2022-09-03T04:45:45;12.80;;;9.43;;
70342;SDS011;57767;42.068;24.752;2022-09-03T04:46:47;12.23;;;9.25;;
70342;SDS011;57767;42.068;24.752;2022-09-03T04:47:58;10.30;;;7.75;;
70342;SDS011;57767;42.068;24.752;2022-09-03T04:49:01;12.43;;;7.30;;
70342;SDS011;57767;42.068;24.752;2022-09-03T04:50:03;8.32;;;7.53;;
70342;SDS011;57767;42.068;24.752;2022-09-03T04:51:07;11.90;;;7.38;;
70342;SDS011;57767;42.068;24.752;2022-09-03T04:52:11;10.40;;;7.47;;
70342;SDS011;57767;42.068;24.752;2022-09-03T04:53:12;9.05;;;8.15;;
70342;SDS011;57767;42.068;24.752;2022-09-03T04:54:14;14.20;;;9.32;;
70342;SDS011;57767;42.068;24.752;2022-09-03T04:55:16;13.35;;;10.77;;
70342;SDS011;57767;42.068;24.752;2022-09-03T04:56:20;16.90;;;12.57;;
70342;SDS011;57767;42.068;24.752;2022-09-03T04:57:27;16.30;;;12.43;;
70342;SDS011;57767;42.068;24.752;2022-09-03T04:58:34;19.65;;;13.68;;
70342;SDS011;57767;42.068;24.752;2022-09-03T04:59:38;15.15;;;13.50;;
70342;SDS011;57767;42.068;24.752;2022-09-03T05:00:41;11.60;;;9.13;;
70342;SDS011;57767;42.068;24.752;2022-09-03T05:01:43;10.35;;;8.82;;
70342;SDS011;57767;42.068;24.752;2022-09-03T05:02:45;9.75;;;8.30;;
70342;SDS011;57767;42.068;24.752;2022-09-03T05:03:52;15.30;;;11.00;;
70342;SDS011;57767;42.068;24.752;2022-09-03T05:04:55;14.90;;;11.98;;
70342;SDS011;57767;42.068;24.752;2022-09-03T05:05:57;12.98;;;9.90;;
70342;SDS011;57767;42.068;24.752;2022-09-03T05:06:59;10.98;;;9.15;;
70342;SDS011;57767;42.068;24.752;2022-09-03T05:08:01;9.85;;;8.35;;
70342;SDS011;57767;42.068;24.752;2022-09-03T05:09:04;12.25;;;8.43;;
70342;SDS011;57767;42.068;24.752;2022-09-03T05:10:08;11.25;;;7.70;;
70342;SDS011;57767;42.068;24.752;2022-09-03T05:11:13;11.02;;;7.75;;
70342;SDS011;57767;42.068;24.752;2022-09-03T05:12:15;12.25;;;8.43;;
70342;SDS011;57767;42.068;24.752;2022-09-03T05:13:18;12.57;;;8.80;;
70342;SDS011;57767;42.068;24.752;2022-09-03T05:14:19;10.55;;;8.90;;
70342;SDS011;57767;42.068;24.752;2022-09-03T05:15:21;13.25;;;8.02;;
70342;SDS011;57767;42.068;24.752;2022-09-03T05:16:23;12.27;;;8.18;;
70342;SDS011;57767;42.068;24.752;2022-09-03T05:17:28;13.10;;;8.13;;
70342;SDS011;57767;42.068;24.752;2022-09-03T05:18:30;8.95;;;7.88;;
70342;SDS011;57767;42.068;24.752;2022-09-03T05:19:33;8.15;;;7.35;;
70342;SDS011;57767;42.068;24.752;2022-09-03T05:20:35;8.70;;;7.22;;
70342;SDS011;57767;42.068;24.752;2022-09-03T05:21:36;9.38;;;7.07;;
70342;SDS011;57767;42.068;24.752;2022-09-03T05:22:38;7.78;;;7.05;;
70342;SDS011;57767;42.068;24.752;2022-09-03T05:23:41;9.40;;;7.60;;
70342;SDS011;57767;42.068;24.752;2022-09-03T05:24:44;12.80;;;7.57;;
70342;SDS011;57767;42.068;24.752;2022-09-03T05:25:53;7.78;;;7.07;;
70342;SDS011;57767;42.068;24.752;2022-09-03T05:26:58;7.68;;;6.90;;
70342;SDS011;57767;42.068;24.752;2022-09-03T05:28:00;9.48;;;7.10;;
70342;SDS011;57767;42.068;24.752;2022-09-03T05:29:02;8.98;;;7.05;;
70342;SDS011;57767;42.068;24.752;2022-09-03T05:30:09;7.38;;;6.68;;
70342;SDS011;57767;42.068;24.752;2022-09-03T05:31:12;9.13;;;7.32;;
70342;SDS011;57767;42.068;24.752;2022-09-03T05:32:14;9.18;;;6.85;;
70342;SDS011;57767;42.068;24.752;2022-09-03T05:33:17;8.85;;;6.95;;
70342;SDS011;57767;42.068;24.752;2022-09-03T05:34:19;9.25;;;7.20;;
70342;SDS011;57767;42.068;24.752;2022-09-03T05:35:21;8.57;;;6.43;;
70342;SDS011;57767;42.068;24.752;2022-09-03T05:36:31;10.52;;;7.15;;
70342;SDS011;57767;42.068;24.752;2022-09-03T05:37:35;12.27;;;6.35;;
70342;SDS011;57767;42.068;24.752;2022-09-03T05:38:38;9.50;;;6.75;;
70342;SDS011;57767;42.068;24.752;2022-09-03T05:39:40;10.68;;;6.60;;
70342;SDS011;57767;42.068;24.752;2022-09-03T05:40:42;9.43;;;6.00;;
70342;SDS011;57767;42.068;24.752;2022-09-03T05:41:43;18.13;;;7.07;;
70342;SDS011;57767;42.068;24.752;2022-09-03T05:42:46;8.57;;;7.05;;
70342;SDS011;57767;42.068;24.752;2022-09-03T05:43:48;7.45;;;6.72;;
70342;SDS011;57767;42.068;24.752;2022-09-03T05:44:56;6.50;;;5.88;;
70342;SDS011;57767;42.068;24.752;2022-09-03T05:45:59;9.20;;;6.78;;
70342;SDS011;57767;42.068;24.752;2022-09-03T05:47:09;6.85;;;5.95;;
70342;SDS011;57767;42.068;24.752;2022-09-03T05:48:11;9.23;;;7.00;;
70342;SDS011;57767;42.068;24.752;2022-09-03T05:49:13;7.55;;;6.60;;
70342;SDS011;57767;42.068;24.752;2022-09-03T05:50:15;7.13;;;6.40;;
70342;SDS011;57767;42.068;24.752;2022-09-03T05:51:17;6.80;;;6.15;;
70342;SDS011;57767;42.068;24.752;2022-09-03T05:52:20;8.68;;;6.90;;
70342;SDS011;57767;42.068;24.752;2022-09-03T05:53:23;13.00;;;8.23;;
70342;SDS011;57767;42.068;24.752;2022-09-03T05:54:25;9.35;;;7.50;;
70342;SDS011;57767;42.068;24.752;2022-09-03T05:55:27;9.07;;;7.68;;
70342;SDS011;57767;42.068;24.752;2022-09-03T05:56:30;11.48;;;7.28;;
70342;SDS011;57767;42.068;24.752;2022-09-03T05:57:33;9.98;;;7.63;;
70342;SDS011;57767;42.068;24.752;2022-09-03T05:58:37;7.93;;;6.22;;
70342;SDS011;57767;42.068;24.752;2022-09-03T05:59:46;6.68;;;6.07;;
70342;SDS011;57767;42.068;24.752;2022-09-03T06:00:48;12.55;;;6.68;;
70342;SDS011;57767;42.068;24.752;2022-09-03T06:01:50;9.55;;;6.93;;
70342;SDS011;57767;42.068;24.752;2022-09-03T06:02:56;7.72;;;5.82;;
70342;SDS011;57767;42.068;24.752;2022-09-03T06:04:06;9.90;;;6.13;;
70342;SDS011;57767;42.068;24.752;2022-09-03T06:05:09;12.15;;;5.95;;
70342;SDS011;57767;42.068;24.752;2022-09-03T06:06:12;9.52;;;6.80;;
70342;SDS011;57767;42.068;24.752;2022-09-03T06:07:15;13.00;;;6.30;;
70342;SDS011;57767;42.068;24.752;2022-09-03T06:08:17;8.27;;;6.65;;
70342;SDS011;57767;42.068;24.752;2022-09-03T06:09:20;7.97;;;7.18;;
70342;SDS011;57767;42.068;24.752;2022-09-03T06:10:23;8.68;;;6.32;;
70342;SDS011;57767;42.068;24.752;2022-09-03T06:11:31;8.07;;;7.35;;
70342;SDS011;57767;42.068;24.752;2022-09-03T06:12:35;11.77;;;6.90;;
70342;SDS011;57767;42.068;24.752;2022-09-03T06:13:37;8.63;;;6.15;;
70342;SDS011;57767;42.068;24.752;2022-09-03T06:14:39;7.95;;;5.97;;
70342;SDS011;57767;42.068;24.752;2022-09-03T06:15:41;10.55;;;5.57;;
70342;SDS011;57767;42.068;24.752;2022-09-03T06:16:44;6.35;;;5.55;;
70342;SDS011;57767;42.068;24.752;2022-09-03T06:17:50;8.70;;;5.47;;
70342;SDS011;57767;42.068;24.752;2022-09-03T06:18:51;7.97;;;5.30;;
70342;SDS011;57767;42.068;24.752;2022-09-03T06:19:54;10.50;;;5.95;;
70342;SDS011;57767;42.068;24.752;2022-09-03T06:20:57;8.18;;;5.25;;
70342;SDS011;57767;42.068;24.752;2022-09-03T06:22:00;5.75;;;5.15;;
70342;SDS011;57767;42.068;24.752;2022-09-03T06:23:02;8.15;;;5.72;;
70342;SDS011;57767;42.068;24.752;2022-09-03T06:24:04;10.23;;;5.45;;
70342;SDS011;57767;42.068;24.752;2022-09-03T06:25:06;6.50;;;5.45;;
70342;SDS011;57767;42.068;24.752;2022-09-03T06:26:11;8.13;;;5.43;;
70342;SDS011;57767;42.068;24.752;2022-09-03T06:27:14;6.28;;;5.68;;
70342;SDS011;57767;42.068;24.752;2022-09-03T06:28:16;9.77;;;5.78;;
70342;SDS011;57767;42.068;24.752;2022-09-03T06:29:23;7.70;;;6.13;;
70342;SDS011;57767;42.068;24.752;2022-09-03T06:30:25;10.32;;;6.15;;
70342;SDS011;57767;42.068;24.752;2022-09-03T06:31:27;6.20;;;5.57;;
70342;SDS011;57767;42.068;24.752;2022-09-03T06:32:29;6.43;;;5.82;;
70342;SDS011;57767;42.068;24.752;2022-09-03T06:33:31;7.05;;;6.35;;
70342;SDS011;57767;42.068;24.752;2022-09-03T06:34:34;6.93;;;5.88;;
70342;SDS011;57767;42.068;24.752;2022-09-03T06:35:36;6.40;;;5.75;;
70342;SDS011;57767;42.068;24.752;2022-09-03T06:36:43;6.78;;;5.95;;
70342;SDS011;57767;42.068;24.752;2022-09-03T06:37:46;6.65;;;6.03;;
70342;SDS011;57767;42.068;24.752;2022-09-03T06:38:50;7.10;;;6.05;;
70342;SDS011;57767;42.068;24.752;2022-09-03T06:39:53;8.25;;;6.18;;
70342;SDS011;57767;42.068;24.752;2022-09-03T06:40:56;7.25;;;6.45;;
70342;SDS011;57767;42.068;24.752;2022-09-03T06:42:02;8.93;;;6.50;;
70342;SDS011;57767;42.068;24.752;2022-09-03T06:43:05;7.93;;;5.80;;
70342;SDS011;57767;42.068;24.752;2022-09-03T06:44:07;6.60;;;6.00;;
70342;SDS011;57767;42.068;24.752;2022-09-03T06:45:12;7.53;;;6.22;;
70342;SDS011;57767;42.068;24.752;2022-09-03T06:46:15;8.50;;;5.85;;
70342;SDS011;57767;42.068;24.752;2022-09-03T06:47:19;6.95;;;5.90;;
70342;SDS011;57767;42.068;24.752;2022-09-03T06:48:20;7.10;;;6.38;;
70342;SDS011;57767;42.068;24.752;2022-09-03T06:49:22;7.25;;;6.28;;
70342;SDS011;57767;42.068;24.752;2022-09-03T06:50:26;6.88;;;6.18;;
70342;SDS011;57767;42.068;24.752;2022-09-03T06:51:34;7.45;;;6.15;;
70342;SDS011;57767;42.068;24.752;2022-09-03T06:52:38;8.57;;;6.30;;
70342;SDS011;57767;42.068;24.752;2022-09-03T06:53:40;9.35;;;6.40;;
70342;SDS011;57767;42.068;24.752;2022-09-03T06:54:43;6.65;;;5.38;;
70342;SDS011;57767;42.068;24.752;2022-09-03T06:55:51;7.75;;;6.18;;
70342;SDS011;57767;42.068;24.752;2022-09-03T06:56:54;9.05;;;6.28;;
70342;SDS011;57767;42.068;24.752;2022-09-03T06:57:56;7.70;;;7.00;;
70342;SDS011;57767;42.068;24.752;2022-09-03T06:59:02;9.68;;;6.25;;
70342;SDS011;57767;42.068;24.752;2022-09-03T07:00:08;7.13;;;6.43;;
70342;SDS011;57767;42.068;24.752;2022-09-03T07:01:18;8.15;;;6.10;;
70342;SDS011;57767;42.068;24.752;2022-09-03T07:02:22;7.03;;;6.38;;
70342;SDS011;57767;42.068;24.752;2022-09-03T07:03:23;6.75;;;6.13;;
70342;SDS011;57767;42.068;24.752;2022-09-03T07:04:25;8.57;;;6.28;;
70342;SDS011;57767;42.068;24.752;2022-09-03T07:05:29;8.65;;;6.95;;
70342;SDS011;57767;42.068;24.752;2022-09-03T07:06:32;7.18;;;6.45;;
70342;SDS011;57767;42.068;24.752;2022-09-03T07:07:42;6.78;;;6.07;;
70342;SDS011;57767;42.068;24.752;2022-09-03T07:08:46;7.72;;;6.10;;
70342;SDS011;57767;42.068;24.752;2022-09-03T07:09:48;6.32;;;5.72;;
70342;SDS011;57767;42.068;24.752;2022-09-03T07:10:50;7.78;;;6.15;;
70342;SDS011;57767;42.068;24.752;2022-09-03T07:11:51;6.95;;;6.25;;
70342;SDS011;57767;42.068;24.752;2022-09-03T07:12:53;9.43;;;6.22;;
70342;SDS011;57767;42.068;24.752;2022-09-03T07:13:56;6.65;;;5.97;;
70342;SDS011;57767;42.068;24.752;2022-09-03T07:14:59;6.40;;;5.80;;